sensor_id;sensor_type;location;lat;lon;timestamp;P1;durP1;ratioP1;P2;durP2;ratioP2
66741;SDS011;53654;54.152;19.432;2022-09-09T00:06:56;3.80;;;1.50;;
66741;SDS011;53654;54.152;19.432;2022-09-09T00:09:40;2.50;;;1.30;;
66741;SDS011;53654;54.152;19.432;2022-09-09T00:15:02;1.50;;;1.30;;
66741;SDS011;53654;54.152;19.432;2022-09-09T00:20:16;3.80;;;1.60;;
66741;SDS011;53654;54.152;19.432;2022-09-09T00:25:32;1.80;;;1.40;;
66741;SDS011;53654;54.152;19.432;2022-09-09T00:28:12;2.30;;;1.30;;
66741;SDS011;53654;54.152;19.432;2022-09-09T00:30:45;2.20;;;1.40;;
66741;SDS011;53654;54.152;19.432;2022-09-09T00:33:17;2.30;;;1.40;;
66741;SDS011;53654;54.152;19.432;2022-09-09T00:41:11;2.60;;;1.70;;
66741;SDS011;53654;54.152;19.432;2022-09-09T00:43:55;2.90;;;1.90;;
66741;SDS011;53654;54.152;19.432;2022-09-09T00:57:49;2.70;;;1.50;;
66741;SDS011;53654;54.152;19.432;2022-09-09T01:00:55;3.20;;;1.70;;
66741;SDS011;53654;54.152;19.432;2022-09-09T01:17:16;1.60;;;1.40;;
66741;SDS011;53654;54.152;19.432;2022-09-09T01:28:05;3.10;;;1.40;;
66741;SDS011;53654;54.152;19.432;2022-09-09T01:30:39;2.20;;;1.50;;
66741;SDS011;53654;54.152;19.432;2022-09-09T01:33:13;4.20;;;1.50;;
66741;SDS011;53654;54.152;19.432;2022-09-09T01:38:52;4.40;;;1.60;;
66741;SDS011;53654;54.152;19.432;2022-09-09T01:41:21;4.90;;;1.80;;
66741;SDS011;53654;54.152;19.432;2022-09-09T01:43:57;1.90;;;1.40;;
66741;SDS011;53654;54.152;19.432;2022-09-09T01:46:25;2.00;;;1.30;;
66741;SDS011;53654;54.152;19.432;2022-09-09T01:48:57;2.20;;;1.50;;
66741;SDS011;53654;54.152;19.432;2022-09-09T01:51:28;2.30;;;1.40;;
66741;SDS011;53654;54.152;19.432;2022-09-09T01:54:02;2.60;;;1.50;;
66741;SDS011;53654;54.152;19.432;2022-09-09T01:56:40;1.50;;;1.30;;
66741;SDS011;53654;54.152;19.432;2022-09-09T02:02:10;4.70;;;1.60;;
66741;SDS011;53654;54.152;19.432;2022-09-09T02:04:50;3.20;;;1.60;;
66741;SDS011;53654;54.152;19.432;2022-09-09T02:10:20;1.60;;;1.50;;
66741;SDS011;53654;54.152;19.432;2022-09-09T02:13:05;4.90;;;1.60;;
66741;SDS011;53654;54.152;19.432;2022-09-09T02:18:13;2.10;;;1.60;;
66741;SDS011;53654;54.152;19.432;2022-09-09T02:20:47;2.40;;;1.70;;
66741;SDS011;53654;54.152;19.432;2022-09-09T02:23:15;2.80;;;1.80;;
66741;SDS011;53654;54.152;19.432;2022-09-09T02:25:45;4.20;;;3.00;;
66741;SDS011;53654;54.152;19.432;2022-09-09T02:28:20;3.90;;;1.80;;
66741;SDS011;53654;54.152;19.432;2022-09-09T02:30:53;2.70;;;1.70;;
66741;SDS011;53654;54.152;19.432;2022-09-09T02:33:29;2.80;;;1.90;;
66741;SDS011;53654;54.152;19.432;2022-09-09T02:36:02;2.30;;;1.80;;
66741;SDS011;53654;54.152;19.432;2022-09-09T02:38:35;4.10;;;1.30;;
66741;SDS011;53654;54.152;19.432;2022-09-09T02:41:10;4.30;;;1.90;;
66741;SDS011;53654;54.152;19.432;2022-09-09T02:43:39;2.50;;;1.60;;
66741;SDS011;53654;54.152;19.432;2022-09-09T02:56:44;4.30;;;1.50;;
66741;SDS011;53654;54.152;19.432;2022-09-09T02:59:18;3.00;;;1.60;;
66741;SDS011;53654;54.152;19.432;2022-09-09T03:01:46;3.00;;;1.60;;
66741;SDS011;53654;54.152;19.432;2022-09-09T03:04:14;2.50;;;1.30;;
66741;SDS011;53654;54.152;19.432;2022-09-09T03:06:43;2.90;;;1.70;;
66741;SDS011;53654;54.152;19.432;2022-09-09T03:09:17;2.40;;;1.60;;
66741;SDS011;53654;54.152;19.432;2022-09-09T03:11:45;3.40;;;1.70;;
66741;SDS011;53654;54.152;19.432;2022-09-09T03:14:14;1.70;;;1.60;;
66741;SDS011;53654;54.152;19.432;2022-09-09T03:16:43;2.20;;;1.60;;
66741;SDS011;53654;54.152;19.432;2022-09-09T03:19:11;1.70;;;1.60;;
66741;SDS011;53654;54.152;19.432;2022-09-09T03:21:40;2.40;;;1.40;;
66741;SDS011;53654;54.152;19.432;2022-09-09T03:24:08;3.50;;;1.50;;
66741;SDS011;53654;54.152;19.432;2022-09-09T03:26:37;2.90;;;1.60;;
66741;SDS011;53654;54.152;19.432;2022-09-09T03:29:07;2.20;;;1.40;;
66741;SDS011;53654;54.152;19.432;2022-09-09T03:31:35;3.30;;;1.60;;
66741;SDS011;53654;54.152;19.432;2022-09-09T03:34:04;3.10;;;1.50;;
66741;SDS011;53654;54.152;19.432;2022-09-09T03:36:33;2.80;;;1.20;;
66741;SDS011;53654;54.152;19.432;2022-09-09T03:39:02;2.00;;;1.20;;
66741;SDS011;53654;54.152;19.432;2022-09-09T03:41:30;4.20;;;1.60;;
66741;SDS011;53654;54.152;19.432;2022-09-09T03:44:00;3.60;;;1.80;;
66741;SDS011;53654;54.152;19.432;2022-09-09T03:46:30;3.20;;;1.90;;
66741;SDS011;53654;54.152;19.432;2022-09-09T03:48:59;2.20;;;1.80;;
66741;SDS011;53654;54.152;19.432;2022-09-09T03:51:27;2.50;;;1.80;;
66741;SDS011;53654;54.152;19.432;2022-09-09T03:53:55;5.30;;;1.80;;
66741;SDS011;53654;54.152;19.432;2022-09-09T03:56:26;2.90;;;1.50;;
66741;SDS011;53654;54.152;19.432;2022-09-09T03:58:55;3.20;;;2.10;;
66741;SDS011;53654;54.152;19.432;2022-09-09T04:01:23;2.40;;;1.80;;
66741;SDS011;53654;54.152;19.432;2022-09-09T04:03:51;2.60;;;1.80;;
66741;SDS011;53654;54.152;19.432;2022-09-09T04:06:20;4.00;;;2.30;;
66741;SDS011;53654;54.152;19.432;2022-09-09T04:08:49;2.40;;;1.70;;
66741;SDS011;53654;54.152;19.432;2022-09-09T04:11:19;3.50;;;1.80;;
66741;SDS011;53654;54.152;19.432;2022-09-09T04:13:48;2.60;;;2.00;;
66741;SDS011;53654;54.152;19.432;2022-09-09T04:16:18;2.80;;;2.00;;
66741;SDS011;53654;54.152;19.432;2022-09-09T04:18:46;3.60;;;1.70;;
66741;SDS011;53654;54.152;19.432;2022-09-09T04:21:16;5.00;;;2.10;;
66741;SDS011;53654;54.152;19.432;2022-09-09T04:23:44;2.10;;;2.00;;
66741;SDS011;53654;54.152;19.432;2022-09-09T04:26:12;3.90;;;1.80;;
66741;SDS011;53654;54.152;19.432;2022-09-09T04:28:41;2.00;;;1.80;;
66741;SDS011;53654;54.152;19.432;2022-09-09T04:31:19;2.30;;;1.60;;
66741;SDS011;53654;54.152;19.432;2022-09-09T04:33:52;5.50;;;2.30;;
66741;SDS011;53654;54.152;19.432;2022-09-09T04:36:21;3.90;;;2.00;;
66741;SDS011;53654;54.152;19.432;2022-09-09T04:38:51;3.00;;;1.80;;
66741;SDS011;53654;54.152;19.432;2022-09-09T04:41:19;2.30;;;1.80;;
66741;SDS011;53654;54.152;19.432;2022-09-09T04:43:50;3.40;;;1.80;;
66741;SDS011;53654;54.152;19.432;2022-09-09T04:46:21;3.00;;;1.90;;
66741;SDS011;53654;54.152;19.432;2022-09-09T04:48:51;3.20;;;2.00;;
66741;SDS011;53654;54.152;19.432;2022-09-09T04:51:21;3.10;;;2.20;;
66741;SDS011;53654;54.152;19.432;2022-09-09T04:53:50;4.40;;;2.30;;
66741;SDS011;53654;54.152;19.432;2022-09-09T04:56:18;2.80;;;2.00;;
66741;SDS011;53654;54.152;19.432;2022-09-09T04:58:56;3.20;;;2.20;;
66741;SDS011;53654;54.152;19.432;2022-09-09T05:01:31;5.20;;;2.30;;
66741;SDS011;53654;54.152;19.432;2022-09-09T05:04:02;3.70;;;2.50;;
66741;SDS011;53654;54.152;19.432;2022-09-09T05:06:32;2.80;;;2.20;;
66741;SDS011;53654;54.152;19.432;2022-09-09T05:09:00;2.80;;;2.30;;
66741;SDS011;53654;54.152;19.432;2022-09-09T05:11:31;3.80;;;2.40;;
66741;SDS011;53654;54.152;19.432;2022-09-09T05:14:10;4.40;;;2.50;;
66741;SDS011;53654;54.152;19.432;2022-09-09T05:16:40;3.10;;;2.30;;
66741;SDS011;53654;54.152;19.432;2022-09-09T05:19:08;3.60;;;2.40;;
66741;SDS011;53654;54.152;19.432;2022-09-09T05:21:47;2.10;;;1.90;;
66741;SDS011;53654;54.152;19.432;2022-09-09T05:24:17;4.00;;;2.20;;
66741;SDS011;53654;54.152;19.432;2022-09-09T05:26:46;2.40;;;2.20;;
66741;SDS011;53654;54.152;19.432;2022-09-09T05:29:17;5.00;;;2.50;;
66741;SDS011;53654;54.152;19.432;2022-09-09T05:31:47;3.70;;;2.50;;
66741;SDS011;53654;54.152;19.432;2022-09-09T05:34:17;5.90;;;2.70;;
66741;SDS011;53654;54.152;19.432;2022-09-09T05:36:46;2.70;;;2.10;;
66741;SDS011;53654;54.152;19.432;2022-09-09T05:39:15;4.10;;;2.30;;
66741;SDS011;53654;54.152;19.432;2022-09-09T05:41:43;2.80;;;2.30;;
66741;SDS011;53654;54.152;19.432;2022-09-09T05:44:12;2.50;;;2.10;;
66741;SDS011;53654;54.152;19.432;2022-09-09T05:46:41;3.60;;;2.10;;
66741;SDS011;53654;54.152;19.432;2022-09-09T05:49:09;2.30;;;2.10;;
66741;SDS011;53654;54.152;19.432;2022-09-09T05:51:38;2.90;;;1.90;;
66741;SDS011;53654;54.152;19.432;2022-09-09T05:54:10;2.00;;;1.80;;
66741;SDS011;53654;54.152;19.432;2022-09-09T05:56:42;3.70;;;2.00;;
66741;SDS011;53654;54.152;19.432;2022-09-09T05:59:10;4.80;;;2.60;;
66741;SDS011;53654;54.152;19.432;2022-09-09T06:01:40;2.80;;;2.10;;
66741;SDS011;53654;54.152;19.432;2022-09-09T06:04:12;2.90;;;2.30;;
66741;SDS011;53654;54.152;19.432;2022-09-09T06:06:40;2.50;;;2.30;;
66741;SDS011;53654;54.152;19.432;2022-09-09T06:09:15;3.80;;;2.20;;
66741;SDS011;53654;54.152;19.432;2022-09-09T06:11:43;2.70;;;2.50;;
66741;SDS011;53654;54.152;19.432;2022-09-09T06:14:14;2.50;;;2.30;;
66741;SDS011;53654;54.152;19.432;2022-09-09T06:16:44;2.70;;;2.20;;
66741;SDS011;53654;54.152;19.432;2022-09-09T06:19:17;4.70;;;2.10;;
66741;SDS011;53654;54.152;19.432;2022-09-09T06:21:45;2.40;;;2.10;;
66741;SDS011;53654;54.152;19.432;2022-09-09T06:24:15;3.90;;;2.30;;
66741;SDS011;53654;54.152;19.432;2022-09-09T06:26:45;2.70;;;2.20;;
66741;SDS011;53654;54.152;19.432;2022-09-09T06:29:18;2.40;;;2.10;;
66741;SDS011;53654;54.152;19.432;2022-09-09T06:31:46;2.90;;;2.10;;
66741;SDS011;53654;54.152;19.432;2022-09-09T06:34:19;3.00;;;2.20;;
66741;SDS011;53654;54.152;19.432;2022-09-09T06:36:49;2.40;;;2.20;;
66741;SDS011;53654;54.152;19.432;2022-09-09T06:39:19;3.80;;;2.30;;
66741;SDS011;53654;54.152;19.432;2022-09-09T06:41:48;2.90;;;2.10;;
66741;SDS011;53654;54.152;19.432;2022-09-09T06:44:46;2.60;;;1.90;;
66741;SDS011;53654;54.152;19.432;2022-09-09T06:47:23;4.00;;;2.50;;
66741;SDS011;53654;54.152;19.432;2022-09-09T06:49:52;3.10;;;2.40;;
66741;SDS011;53654;54.152;19.432;2022-09-09T06:52:20;4.50;;;2.60;;
66741;SDS011;53654;54.152;19.432;2022-09-09T06:54:49;4.50;;;2.70;;
66741;SDS011;53654;54.152;19.432;2022-09-09T06:57:17;7.60;;;2.50;;
66741;SDS011;53654;54.152;19.432;2022-09-09T07:00:12;2.90;;;2.60;;
66741;SDS011;53654;54.152;19.432;2022-09-09T07:02:41;3.20;;;2.70;;
66741;SDS011;53654;54.152;19.432;2022-09-09T07:05:10;2.60;;;2.40;;
66741;SDS011;53654;54.152;19.432;2022-09-09T07:07:38;3.20;;;2.70;;
66741;SDS011;53654;54.152;19.432;2022-09-09T07:10:08;3.30;;;3.00;;
66741;SDS011;53654;54.152;19.432;2022-09-09T07:12:36;3.50;;;2.70;;
66741;SDS011;53654;54.152;19.432;2022-09-09T07:15:05;3.50;;;3.20;;
66741;SDS011;53654;54.152;19.432;2022-09-09T07:17:33;4.40;;;3.00;;
66741;SDS011;53654;54.152;19.432;2022-09-09T07:20:02;3.60;;;3.00;;
66741;SDS011;53654;54.152;19.432;2022-09-09T07:22:32;3.60;;;3.10;;
66741;SDS011;53654;54.152;19.432;2022-09-09T07:25:01;3.90;;;3.20;;
66741;SDS011;53654;54.152;19.432;2022-09-09T07:27:30;4.60;;;2.90;;
66741;SDS011;53654;54.152;19.432;2022-09-09T07:29:58;4.00;;;3.10;;
66741;SDS011;53654;54.152;19.432;2022-09-09T07:32:27;4.80;;;3.40;;
66741;SDS011;53654;54.152;19.432;2022-09-09T07:34:55;4.60;;;3.50;;
66741;SDS011;53654;54.152;19.432;2022-09-09T07:37:26;6.20;;;3.40;;
66741;SDS011;53654;54.152;19.432;2022-09-09T07:39:55;3.80;;;3.50;;
66741;SDS011;53654;54.152;19.432;2022-09-09T07:42:24;4.10;;;3.60;;
66741;SDS011;53654;54.152;19.432;2022-09-09T07:44:52;5.60;;;3.80;;
66741;SDS011;53654;54.152;19.432;2022-09-09T07:47:22;7.00;;;4.00;;
66741;SDS011;53654;54.152;19.432;2022-09-09T07:49:52;4.60;;;4.10;;
66741;SDS011;53654;54.152;19.432;2022-09-09T07:52:24;4.90;;;3.40;;
66741;SDS011;53654;54.152;19.432;2022-09-09T07:54:55;5.10;;;4.20;;
66741;SDS011;53654;54.152;19.432;2022-09-09T07:57:24;5.10;;;4.50;;
66741;SDS011;53654;54.152;19.432;2022-09-09T07:59:53;5.70;;;4.90;;
66741;SDS011;53654;54.152;19.432;2022-09-09T08:02:22;5.50;;;4.80;;
66741;SDS011;53654;54.152;19.432;2022-09-09T08:04:53;6.20;;;5.50;;
66741;SDS011;53654;54.152;19.432;2022-09-09T08:07:21;6.00;;;5.40;;
66741;SDS011;53654;54.152;19.432;2022-09-09T08:09:53;5.10;;;4.60;;
66741;SDS011;53654;54.152;19.432;2022-09-09T08:12:27;7.20;;;5.40;;
66741;SDS011;53654;54.152;19.432;2022-09-09T08:14:56;6.70;;;5.60;;
66741;SDS011;53654;54.152;19.432;2022-09-09T08:17:27;6.30;;;5.60;;
66741;SDS011;53654;54.152;19.432;2022-09-09T08:19:56;6.70;;;5.90;;
66741;SDS011;53654;54.152;19.432;2022-09-09T08:22:26;10.40;;;6.40;;
66741;SDS011;53654;54.152;19.432;2022-09-09T08:24:54;7.40;;;6.20;;
66741;SDS011;53654;54.152;19.432;2022-09-09T08:27:23;8.30;;;6.70;;
66741;SDS011;53654;54.152;19.432;2022-09-09T08:29:52;7.90;;;6.00;;
66741;SDS011;53654;54.152;19.432;2022-09-09T08:32:20;9.10;;;7.10;;
66741;SDS011;53654;54.152;19.432;2022-09-09T08:34:49;6.60;;;6.00;;
66741;SDS011;53654;54.152;19.432;2022-09-09T08:37:22;7.40;;;6.40;;
66741;SDS011;53654;54.152;19.432;2022-09-09T08:39:50;8.20;;;6.70;;
66741;SDS011;53654;54.152;19.432;2022-09-09T08:42:28;8.20;;;6.70;;
66741;SDS011;53654;54.152;19.432;2022-09-09T09:09:57;9.40;;;7.50;;
66741;SDS011;53654;54.152;19.432;2022-09-09T09:12:40;7.70;;;6.60;;
66741;SDS011;53654;54.152;19.432;2022-09-09T09:15:18;8.40;;;7.00;;
66741;SDS011;53654;54.152;19.432;2022-09-09T09:17:50;8.10;;;7.10;;
66741;SDS011;53654;54.152;19.432;2022-09-09T09:20:21;9.30;;;7.50;;
66741;SDS011;53654;54.152;19.432;2022-09-09T09:23:00;8.10;;;7.10;;
66741;SDS011;53654;54.152;19.432;2022-09-09T09:25:35;8.60;;;7.40;;
66741;SDS011;53654;54.152;19.432;2022-09-09T09:28:17;8.70;;;7.80;;
66741;SDS011;53654;54.152;19.432;2022-09-09T09:31:08;8.60;;;7.70;;
66741;SDS011;53654;54.152;19.432;2022-09-09T09:36:08;7.80;;;7.00;;
66741;SDS011;53654;54.152;19.432;2022-09-09T09:38:37;8.60;;;7.70;;
66741;SDS011;53654;54.152;19.432;2022-09-09T09:44:02;9.10;;;8.20;;
66741;SDS011;53654;54.152;19.432;2022-09-09T09:46:32;8.00;;;7.20;;
66741;SDS011;53654;54.152;19.432;2022-09-09T09:49:10;6.80;;;6.20;;
66741;SDS011;53654;54.152;19.432;2022-09-09T09:51:38;7.50;;;6.80;;
66741;SDS011;53654;54.152;19.432;2022-09-09T09:56:50;9.20;;;7.00;;
66741;SDS011;53654;54.152;19.432;2022-09-09T09:59:40;8.30;;;6.70;;
66741;SDS011;53654;54.152;19.432;2022-09-09T10:02:20;8.20;;;7.10;;
66741;SDS011;53654;54.152;19.432;2022-09-09T10:08:01;8.10;;;7.20;;
66741;SDS011;53654;54.152;19.432;2022-09-09T10:13:26;6.40;;;5.90;;
66741;SDS011;53654;54.152;19.432;2022-09-09T10:19:03;7.40;;;6.60;;
66741;SDS011;53654;54.152;19.432;2022-09-09T10:21:57;6.80;;;6.00;;
66741;SDS011;53654;54.152;19.432;2022-09-09T10:27:32;7.60;;;6.40;;
66741;SDS011;53654;54.152;19.432;2022-09-09T10:54:55;5.60;;;5.10;;
66741;SDS011;53654;54.152;19.432;2022-09-09T10:57:29;5.20;;;4.80;;
66741;SDS011;53654;54.152;19.432;2022-09-09T11:00:04;5.80;;;5.00;;
66741;SDS011;53654;54.152;19.432;2022-09-09T11:02:42;5.60;;;5.10;;
66741;SDS011;53654;54.152;19.432;2022-09-09T11:05:18;5.90;;;5.30;;
66741;SDS011;53654;54.152;19.432;2022-09-09T11:07:54;5.70;;;5.20;;
66741;SDS011;53654;54.152;19.432;2022-09-09T11:13:13;5.00;;;4.60;;
66741;SDS011;53654;54.152;19.432;2022-09-09T11:15:52;5.60;;;5.00;;
66741;SDS011;53654;54.152;19.432;2022-09-09T11:18:24;5.80;;;5.30;;
66741;SDS011;53654;54.152;19.432;2022-09-09T11:20:58;4.80;;;4.40;;
66741;SDS011;53654;54.152;19.432;2022-09-09T11:23:52;5.10;;;4.70;;
66741;SDS011;53654;54.152;19.432;2022-09-09T11:40:27;4.80;;;4.40;;
66741;SDS011;53654;54.152;19.432;2022-09-09T11:43:07;4.40;;;4.10;;
66741;SDS011;53654;54.152;19.432;2022-09-09T11:45:42;4.40;;;4.00;;
66741;SDS011;53654;54.152;19.432;2022-09-09T11:48:34;4.30;;;4.00;;
66741;SDS011;53654;54.152;19.432;2022-09-09T11:51:08;5.20;;;4.80;;
66741;SDS011;53654;54.152;19.432;2022-09-09T11:53:51;4.60;;;4.10;;
66741;SDS011;53654;54.152;19.432;2022-09-09T11:56:24;5.70;;;4.80;;
66741;SDS011;53654;54.152;19.432;2022-09-09T11:58:55;5.00;;;4.60;;
66741;SDS011;53654;54.152;19.432;2022-09-09T12:01:37;5.40;;;4.90;;
66741;SDS011;53654;54.152;19.432;2022-09-09T12:04:17;5.50;;;5.00;;
66741;SDS011;53654;54.152;19.432;2022-09-09T12:17:10;5.30;;;4.90;;
66741;SDS011;53654;54.152;19.432;2022-09-09T12:19:47;6.30;;;5.70;;
66741;SDS011;53654;54.152;19.432;2022-09-09T12:22:26;6.00;;;5.40;;
66741;SDS011;53654;54.152;19.432;2022-09-09T12:25:22;5.80;;;5.30;;
66741;SDS011;53654;54.152;19.432;2022-09-09T12:30:54;6.90;;;6.10;;
66741;SDS011;53654;54.152;19.432;2022-09-09T12:33:39;6.50;;;5.90;;
66741;SDS011;53654;54.152;19.432;2022-09-09T12:36:14;6.60;;;6.00;;
66741;SDS011;53654;54.152;19.432;2022-09-09T12:38:46;6.60;;;5.60;;
66741;SDS011;53654;54.152;19.432;2022-09-09T12:41:20;6.20;;;5.80;;
66741;SDS011;53654;54.152;19.432;2022-09-09T12:44:06;5.90;;;5.50;;
66741;SDS011;53654;54.152;19.432;2022-09-09T12:46:44;5.90;;;5.30;;
66741;SDS011;53654;54.152;19.432;2022-09-09T12:49:31;6.90;;;6.40;;
66741;SDS011;53654;54.152;19.432;2022-09-09T12:52:03;7.00;;;6.30;;
66741;SDS011;53654;54.152;19.432;2022-09-09T12:54:34;7.30;;;6.60;;
66741;SDS011;53654;54.152;19.432;2022-09-09T12:57:04;7.30;;;6.60;;
66741;SDS011;53654;54.152;19.432;2022-09-09T12:59:39;5.90;;;5.40;;
66741;SDS011;53654;54.152;19.432;2022-09-09T13:02:14;6.90;;;6.30;;
66741;SDS011;53654;54.152;19.432;2022-09-09T13:04:46;7.20;;;6.40;;
66741;SDS011;53654;54.152;19.432;2022-09-09T13:07:14;7.10;;;6.10;;
66741;SDS011;53654;54.152;19.432;2022-09-09T13:09:44;6.90;;;6.30;;
66741;SDS011;53654;54.152;19.432;2022-09-09T13:12:15;8.30;;;6.70;;
66741;SDS011;53654;54.152;19.432;2022-09-09T13:14:50;6.50;;;6.00;;
66741;SDS011;53654;54.152;19.432;2022-09-09T13:17:22;7.80;;;7.10;;
66741;SDS011;53654;54.152;19.432;2022-09-09T13:19:51;8.10;;;7.30;;
66741;SDS011;53654;54.152;19.432;2022-09-09T13:22:29;9.00;;;8.10;;
66741;SDS011;53654;54.152;19.432;2022-09-09T13:25:41;8.40;;;7.60;;
66741;SDS011;53654;54.152;19.432;2022-09-09T13:27:59;7.90;;;7.20;;
66741;SDS011;53654;54.152;19.432;2022-09-09T13:30:32;7.60;;;6.90;;
66741;SDS011;53654;54.152;19.432;2022-09-09T13:35:56;7.90;;;6.80;;
66741;SDS011;53654;54.152;19.432;2022-09-09T13:38:27;7.70;;;7.00;;
66741;SDS011;53654;54.152;19.432;2022-09-09T13:41:01;6.70;;;6.20;;
66741;SDS011;53654;54.152;19.432;2022-09-09T13:43:37;6.60;;;6.10;;
66741;SDS011;53654;54.152;19.432;2022-09-09T13:48:58;8.00;;;7.00;;
66741;SDS011;53654;54.152;19.432;2022-09-09T13:51:47;8.60;;;7.60;;
66741;SDS011;53654;54.152;19.432;2022-09-09T13:54:19;8.20;;;7.40;;
66741;SDS011;53654;54.152;19.432;2022-09-09T13:56:48;9.30;;;8.50;;
66741;SDS011;53654;54.152;19.432;2022-09-09T13:59:18;12.60;;;11.10;;
66741;SDS011;53654;54.152;19.432;2022-09-09T14:01:47;9.70;;;8.80;;
66741;SDS011;53654;54.152;19.432;2022-09-09T14:04:16;8.30;;;7.50;;
66741;SDS011;53654;54.152;19.432;2022-09-09T14:06:44;7.30;;;6.60;;
66741;SDS011;53654;54.152;19.432;2022-09-09T14:09:13;7.20;;;6.60;;
66741;SDS011;53654;54.152;19.432;2022-09-09T14:11:44;7.40;;;6.80;;
66741;SDS011;53654;54.152;19.432;2022-09-09T14:14:15;8.20;;;7.50;;
66741;SDS011;53654;54.152;19.432;2022-09-09T14:16:43;8.00;;;7.30;;
66741;SDS011;53654;54.152;19.432;2022-09-09T14:19:12;7.70;;;6.90;;
66741;SDS011;53654;54.152;19.432;2022-09-09T14:21:40;7.80;;;7.20;;
66741;SDS011;53654;54.152;19.432;2022-09-09T14:24:08;7.30;;;6.70;;
66741;SDS011;53654;54.152;19.432;2022-09-09T14:26:36;7.80;;;7.10;;
66741;SDS011;53654;54.152;19.432;2022-09-09T14:29:04;7.60;;;6.90;;
66741;SDS011;53654;54.152;19.432;2022-09-09T14:31:32;7.60;;;6.90;;
66741;SDS011;53654;54.152;19.432;2022-09-09T14:34:00;7.70;;;6.90;;
66741;SDS011;53654;54.152;19.432;2022-09-09T14:36:28;7.60;;;6.90;;
66741;SDS011;53654;54.152;19.432;2022-09-09T14:38:57;7.90;;;7.20;;
66741;SDS011;53654;54.152;19.432;2022-09-09T14:41:26;8.10;;;7.30;;
66741;SDS011;53654;54.152;19.432;2022-09-09T14:43:54;8.00;;;7.20;;
66741;SDS011;53654;54.152;19.432;2022-09-09T14:46:22;7.60;;;6.90;;
66741;SDS011;53654;54.152;19.432;2022-09-09T14:48:50;8.10;;;7.40;;
66741;SDS011;53654;54.152;19.432;2022-09-09T14:51:24;7.30;;;6.70;;
66741;SDS011;53654;54.152;19.432;2022-09-09T14:53:56;7.90;;;7.20;;
66741;SDS011;53654;54.152;19.432;2022-09-09T14:56:27;8.60;;;7.90;;
66741;SDS011;53654;54.152;19.432;2022-09-09T14:58:58;8.50;;;7.70;;
66741;SDS011;53654;54.152;19.432;2022-09-09T15:01:28;8.50;;;7.80;;
66741;SDS011;53654;54.152;19.432;2022-09-09T15:03:59;8.50;;;7.80;;
66741;SDS011;53654;54.152;19.432;2022-09-09T15:06:29;8.80;;;8.00;;
66741;SDS011;53654;54.152;19.432;2022-09-09T15:08:59;8.70;;;7.90;;
66741;SDS011;53654;54.152;19.432;2022-09-09T15:11:29;9.10;;;8.30;;
66741;SDS011;53654;54.152;19.432;2022-09-09T15:14:02;9.30;;;8.30;;
66741;SDS011;53654;54.152;19.432;2022-09-09T15:16:30;8.10;;;7.40;;
66741;SDS011;53654;54.152;19.432;2022-09-09T15:19:00;8.60;;;7.80;;
66741;SDS011;53654;54.152;19.432;2022-09-09T15:21:31;9.40;;;8.30;;
66741;SDS011;53654;54.152;19.432;2022-09-09T15:24:01;8.60;;;7.80;;
66741;SDS011;53654;54.152;19.432;2022-09-09T15:26:29;9.70;;;8.70;;
66741;SDS011;53654;54.152;19.432;2022-09-09T15:28:57;9.50;;;8.70;;
66741;SDS011;53654;54.152;19.432;2022-09-09T15:31:28;8.80;;;8.00;;
66741;SDS011;53654;54.152;19.432;2022-09-09T15:34:00;10.10;;;9.00;;
66741;SDS011;53654;54.152;19.432;2022-09-09T15:39:07;9.90;;;9.00;;
66741;SDS011;53654;54.152;19.432;2022-09-09T15:41:40;10.20;;;9.20;;
66741;SDS011;53654;54.152;19.432;2022-09-09T15:44:09;11.10;;;9.90;;
66741;SDS011;53654;54.152;19.432;2022-09-09T15:46:58;11.60;;;10.20;;
66741;SDS011;53654;54.152;19.432;2022-09-09T15:49:26;11.20;;;10.10;;
66741;SDS011;53654;54.152;19.432;2022-09-09T15:51:55;12.30;;;11.00;;
66741;SDS011;53654;54.152;19.432;2022-09-09T15:54:25;11.30;;;10.30;;
66741;SDS011;53654;54.152;19.432;2022-09-09T15:56:55;12.20;;;10.30;;
66741;SDS011;53654;54.152;19.432;2022-09-09T15:59:25;11.10;;;10.00;;
66741;SDS011;53654;54.152;19.432;2022-09-09T16:01:58;11.90;;;10.70;;
66741;SDS011;53654;54.152;19.432;2022-09-09T16:04:30;11.30;;;10.20;;
66741;SDS011;53654;54.152;19.432;2022-09-09T16:06:59;11.50;;;10.50;;
66741;SDS011;53654;54.152;19.432;2022-09-09T16:09:32;11.20;;;10.20;;
66741;SDS011;53654;54.152;19.432;2022-09-09T16:12:01;12.00;;;10.80;;
66741;SDS011;53654;54.152;19.432;2022-09-09T16:14:33;11.80;;;9.90;;
66741;SDS011;53654;54.152;19.432;2022-09-09T16:17:03;11.40;;;10.20;;
66741;SDS011;53654;54.152;19.432;2022-09-09T16:19:33;11.10;;;10.10;;
66741;SDS011;53654;54.152;19.432;2022-09-09T16:22:02;11.70;;;10.40;;
66741;SDS011;53654;54.152;19.432;2022-09-09T16:24:31;11.40;;;10.20;;
66741;SDS011;53654;54.152;19.432;2022-09-09T16:27:00;12.10;;;10.80;;
66741;SDS011;53654;54.152;19.432;2022-09-09T16:29:28;12.70;;;10.50;;
66741;SDS011;53654;54.152;19.432;2022-09-09T16:31:56;12.50;;;11.10;;
66741;SDS011;53654;54.152;19.432;2022-09-09T16:34:30;12.50;;;11.30;;
66741;SDS011;53654;54.152;19.432;2022-09-09T16:36:58;12.70;;;11.30;;
66741;SDS011;53654;54.152;19.432;2022-09-09T16:39:26;12.20;;;11.10;;
66741;SDS011;53654;54.152;19.432;2022-09-09T16:41:55;13.30;;;11.80;;
66741;SDS011;53654;54.152;19.432;2022-09-09T16:44:24;12.70;;;11.20;;
66741;SDS011;53654;54.152;19.432;2022-09-09T16:46:53;12.20;;;11.00;;
66741;SDS011;53654;54.152;19.432;2022-09-09T16:49:27;12.10;;;10.20;;
66741;SDS011;53654;54.152;19.432;2022-09-09T16:51:58;13.00;;;11.20;;
66741;SDS011;53654;54.152;19.432;2022-09-09T16:54:27;11.70;;;10.50;;
66741;SDS011;53654;54.152;19.432;2022-09-09T16:56:57;13.80;;;11.40;;
66741;SDS011;53654;54.152;19.432;2022-09-09T16:59:26;13.00;;;10.90;;
66741;SDS011;53654;54.152;19.432;2022-09-09T17:01:55;12.10;;;10.90;;
66741;SDS011;53654;54.152;19.432;2022-09-09T17:04:25;13.00;;;11.50;;
66741;SDS011;53654;54.152;19.432;2022-09-09T17:06:55;13.50;;;11.40;;
66741;SDS011;53654;54.152;19.432;2022-09-09T17:09:25;13.20;;;11.30;;
66741;SDS011;53654;54.152;19.432;2022-09-09T17:11:57;12.60;;;11.00;;
66741;SDS011;53654;54.152;19.432;2022-09-09T17:14:26;13.00;;;11.60;;
66741;SDS011;53654;54.152;19.432;2022-09-09T17:16:54;13.20;;;11.00;;
66741;SDS011;53654;54.152;19.432;2022-09-09T17:19:22;12.10;;;10.80;;
66741;SDS011;53654;54.152;19.432;2022-09-09T17:21:50;12.20;;;10.70;;
66741;SDS011;53654;54.152;19.432;2022-09-09T17:24:38;11.70;;;10.60;;
66741;SDS011;53654;54.152;19.432;2022-09-09T17:27:06;11.60;;;10.40;;
66741;SDS011;53654;54.152;19.432;2022-09-09T17:29:35;12.10;;;10.90;;
66741;SDS011;53654;54.152;19.432;2022-09-09T17:32:06;11.70;;;10.50;;
66741;SDS011;53654;54.152;19.432;2022-09-09T17:34:35;11.10;;;10.20;;
66741;SDS011;53654;54.152;19.432;2022-09-09T17:37:03;11.60;;;10.30;;
66741;SDS011;53654;54.152;19.432;2022-09-09T17:39:32;11.50;;;10.30;;
66741;SDS011;53654;54.152;19.432;2022-09-09T17:42:01;10.90;;;9.80;;
66741;SDS011;53654;54.152;19.432;2022-09-09T17:44:30;10.90;;;9.80;;
66741;SDS011;53654;54.152;19.432;2022-09-09T17:47:00;10.60;;;9.60;;
66741;SDS011;53654;54.152;19.432;2022-09-09T17:49:28;10.90;;;9.80;;
66741;SDS011;53654;54.152;19.432;2022-09-09T17:51:56;10.70;;;9.50;;
66741;SDS011;53654;54.152;19.432;2022-09-09T17:54:24;10.80;;;9.70;;
66741;SDS011;53654;54.152;19.432;2022-09-09T17:56:52;10.80;;;9.70;;
66741;SDS011;53654;54.152;19.432;2022-09-09T17:59:20;10.70;;;9.50;;
66741;SDS011;53654;54.152;19.432;2022-09-09T18:01:48;10.90;;;9.70;;